Terminal Aerodrome Forecast
Issued by NWS Jackson, MS

Home | Current Version | Previous Version | Text Only | Print | Product List | Glossary On
Versions: 1 2 3 4 5 6 7 8 9 10 11 12
000
FTUS44 KJAN 270538
TAFGLH
TAF
KGLH 270538Z 2706/2806 08004KT P6SM SCT250
     FM270900 08003KT 5SM BR FEW250
     FM271130 VRB03KT 3SM BR SCT009 BKN250
     FM271330 09007KT P6SM FEW050 SCT250
     FM280000 07005KT P6SM FEW250=

USA.gov is the U.S. government's official web portal to all federal, state and local government web resources and services.